Stations météo

réclame
Mon MeteoGroup
Cairnwell, Grande-Bretagne (3072): Température de l'air & dewpoint: 24.10.2020 07:00:00 - 30.10.2020 07:00:00 (GMT)Cairnwell, Grande-Bretagne (3072): Vitesse du vent & gusts: 24.10.2020 07:00:00 - 30.10.2020 07:00:00 (GMT)Cairnwell, Grande-Bretagne (3072): Direction du vent: 24.10.2020 07:00:00 - 30.10.2020 07:00:00 (GMT)
Date & Time tt [°C] td [°C] ff [km/h] ff [knt] fx [km/h] fx [knt] dd
30.10.2020 07:00:00 4,0 4,0 46 25 78 42 W
30.10.2020 06:00:00 5,2 5,2 44 24 70 38 W
30.10.2020 05:00:00 5,7 5,7 37 20 76 41 W
30.10.2020 04:00:00 6,4 6,4 59 32 93 50 WSW
30.10.2020 03:00:00 7,7 7,7 65 35 98 53 WSW
30.10.2020 02:00:00 7,9 7,9 61 33 120 65 SW
30.10.2020 01:00:00 8,5 8,5 89 48 111 60 SW
30.10.2020 00:00:00 8,4 8,4 61 33 91 49 SW
29.10.2020 23:00:00 7,7 7,7 48 26 61 33 SSW
29.10.2020 22:00:00 7,2 7,2 46 25 61 33 SSW
29.10.2020 21:00:00 6,3 6,3 42 23 54 29 SSW
29.10.2020 20:00:00 6,0 6,0 44 24 54 29 SSW
29.10.2020 19:00:00 5,4 5,4 37 20 46 25 SSW
29.10.2020 18:00:00 4,5 4,5 28 15 50 27 S
29.10.2020 17:00:00 4,1 4,1 31 17 63 34 SSE
29.10.2020 16:00:00 3,0 3,0 48 26 67 36 SE
29.10.2020 15:00:00 2,5 2,5 55 30 67 36 SE
29.10.2020 14:00:00 1,4 1,4 34 18 - - SE
29.10.2020 13:00:00 2,0 2,0 28 15 - - S
29.10.2020 12:00:00 1,2 1,2 35 19 46 25 S
29.10.2020 11:00:00 1,0 1,0 39 21 48 26 S
29.10.2020 10:00:00 0,6 0,6 37 20 46 25 SSW
29.10.2020 09:00:00 0,6 0,6 37 20 - - SSW
29.10.2020 08:00:00 0,4 0,4 26 14 - - S
29.10.2020 07:00:00 1,0 1,0 21 11 55 30 SW
29.10.2020 06:00:00 1,1 1,1 37 20 59 32 WSW
29.10.2020 05:00:00 1,8 1,8 42 23 65 35 W
29.10.2020 04:00:00 1,1 1,1 26 14 52 28 WSW
29.10.2020 03:00:00 1,5 1,5 28 15 59 32 WNW
29.10.2020 02:00:00 1,7 1,7 34 18 57 31 W
29.10.2020 01:00:00 1,1 1,1 22 12 52 28 W
29.10.2020 00:00:00 0,9 0,9 42 23 57 31 W
28.10.2020 23:00:00 1,0 1,0 35 19 48 26 SSW
28.10.2020 22:00:00 0,9 0,9 35 19 48 26 SSW
28.10.2020 21:00:00 1,0 1,0 31 17 52 28 SW
28.10.2020 20:00:00 1,1 1,1 48 26 78 42 WSW
28.10.2020 19:00:00 0,9 0,9 52 28 65 35 WSW
28.10.2020 18:00:00 1,3 1,3 37 20 63 34 WSW
28.10.2020 17:00:00 1,4 1,4 41 22 68 37 SW
28.10.2020 16:00:00 1,6 1,6 52 28 67 36 SW
28.10.2020 15:00:00 1,6 1,6 48 26 67 36 SW
28.10.2020 14:00:00 1,8 1,8 50 27 63 34 SW
28.10.2020 13:00:00 1,7 1,7 46 25 61 33 SW
28.10.2020 12:00:00 1,8 1,8 46 25 67 36 SW
28.10.2020 11:00:00 1,5 1,5 48 26 74 40 SW
28.10.2020 10:00:00 1,4 1,4 44 24 61 33 SW
28.10.2020 09:00:00 1,2 1,2 39 21 63 34 SW
28.10.2020 08:00:00 1,2 1,2 44 24 59 32 SW
28.10.2020 07:00:00 1,1 1,1 48 26 72 39 SW
28.10.2020 06:00:00 1,1 1,1 54 29 68 37 SW
28.10.2020 05:00:00 1,0 1,0 41 22 61 33 SSW
28.10.2020 04:00:00 0,8 0,8 48 26 61 33 SW
28.10.2020 03:00:00 0,5 0,5 41 22 57 31 SW
28.10.2020 02:00:00 0,3 0,3 41 22 59 32 SW
28.10.2020 01:00:00 0,2 0,2 35 19 70 38 SW
28.10.2020 00:00:00 0,4 0,4 50 27 68 37 WSW
27.10.2020 23:00:00 0,7 0,7 46 25 68 37 WSW
27.10.2020 22:00:00 0,6 0,6 35 19 70 38 W
27.10.2020 21:00:00 -0,2 -0,2 61 33 102 55 WNW
27.10.2020 20:00:00 -0,1 -0,1 67 36 96 52 W
27.10.2020 19:00:00 2,8 2,8 22 12 - - WSW
27.10.2020 18:00:00 2,8 2,8 31 17 54 29 S
27.10.2020 17:00:00 2,6 2,6 41 22 70 38 SE
27.10.2020 16:00:00 2,2 2,2 52 28 68 37 SE
27.10.2020 15:00:00 1,8 1,8 48 26 59 32 SE
27.10.2020 14:00:00 1,6 1,6 31 17 - - SSE
27.10.2020 13:00:00 1,4 1,4 28 15 50 27 S
27.10.2020 12:00:00 0,7 0,7 41 22 50 27 S
27.10.2020 11:00:00 1,4 1,4 39 21 46 25 S
27.10.2020 10:00:00 1,2 1,2 29 16 - - S
27.10.2020 09:00:00 0,8 0,8 26 14 - - SSW
27.10.2020 08:00:00 0,6 0,6 16 9 - - SW
27.10.2020 07:00:00 1,1 1,1 15 8 - - WSW
27.10.2020 06:00:00 1,5 1,5 9 5 - - SSE
27.10.2020 05:00:00 1,5 1,5 13 7 - - WNW
27.10.2020 04:00:00 1,7 1,7 13 7 - - WNW
27.10.2020 03:00:00 1,9 1,9 18 10 - - WNW
27.10.2020 02:00:00 2,3 2,3 22 12 48 26 WNW
27.10.2020 01:00:00 2,3 2,3 35 19 46 25 WNW
27.10.2020 00:00:00 2,5 2,5 41 22 46 25 WNW
26.10.2020 23:00:00 2,4 2,4 31 17 46 25 NW
26.10.2020 22:00:00 2,5 2,5 31 17 - - NW
26.10.2020 21:00:00 2,4 2,4 31 17 46 25 NW
26.10.2020 20:00:00 2,6 2,6 31 17 46 25 NW
26.10.2020 19:00:00 2,6 2,6 28 15 - - NW
26.10.2020 18:00:00 2,5 2,5 26 14 - - NNW
26.10.2020 17:00:00 2,8 2,8 24 13 - - NNW
26.10.2020 16:00:00 2,5 2,5 37 20 48 26 NNW
26.10.2020 15:00:00 2,9 2,9 34 18 - - WNW
26.10.2020 14:00:00 3,3 3,3 24 13 - - NW
26.10.2020 13:00:00 3,4 3,4 15 8 - - W
26.10.2020 12:00:00 3,1 3,1 15 8 - - W
26.10.2020 11:00:00 2,6 2,6 16 9 - - W
26.10.2020 10:00:00 2,5 2,5 13 7 - - SSW
26.10.2020 09:00:00 2,4 2,4 26 14 - - SSW
26.10.2020 08:00:00 2,2 2,2 29 16 - - S
26.10.2020 07:00:00 2,3 2,3 35 19 - - SSW
26.10.2020 06:00:00 2,4 2,4 34 18 54 29 S
26.10.2020 05:00:00 2,3 2,3 44 24 65 35 S
26.10.2020 04:00:00 2,4 2,4 54 29 70 38 S
26.10.2020 03:00:00 2,3 2,3 59 32 78 42 S
26.10.2020 02:00:00 2,2 2,2 59 32 80 43 S
26.10.2020 01:00:00 2,0 2,0 63 34 85 46 S
26.10.2020 00:00:00 2,0 2,0 70 38 89 48 S
25.10.2020 23:00:00 2,0 2,0 70 38 91 49 S
25.10.2020 22:00:00 1,9 1,9 70 38 93 50 S
25.10.2020 21:00:00 2,0 2,0 83 45 100 54 SSW
25.10.2020 20:00:00 2,0 2,0 85 46 102 55 S
25.10.2020 19:00:00 2,1 2,1 81 44 104 56 S
25.10.2020 18:00:00 2,0 2,0 80 43 98 53 S
25.10.2020 17:00:00 2,0 2,0 78 42 100 54 SSW
25.10.2020 16:00:00 2,0 2,0 76 41 100 54 SSW
25.10.2020 15:00:00 2,0 2,0 81 44 96 52 SSW
25.10.2020 14:00:00 1,7 1,7 74 40 93 50 S
25.10.2020 13:00:00 1,7 1,7 65 35 89 48 SSW
25.10.2020 12:00:00 1,3 1,3 65 35 80 43 SSW
25.10.2020 11:00:00 0,9 0,9 65 35 83 45 S
25.10.2020 10:00:00 0,9 0,9 68 37 87 47 SSW
25.10.2020 09:00:00 1,1 1,1 55 30 74 40 S
25.10.2020 08:00:00 0,9 0,9 59 32 76 41 S
25.10.2020 07:00:00 0,8 0,8 61 33 91 49 S
25.10.2020 06:00:00 0,6 0,6 72 39 91 49 S
25.10.2020 05:00:00 0,5 0,5 68 37 83 45 S
25.10.2020 04:00:00 0,4 0,4 67 36 87 47 S
25.10.2020 03:00:00 0,5 0,5 63 34 85 46 S
25.10.2020 02:00:00 0,6 0,6 55 30 72 39 S
25.10.2020 01:00:00 0,6 0,6 57 31 70 38 SSW
25.10.2020 00:00:00 - - - - - - -
24.10.2020 23:00:00 0,0 0,0 46 25 61 33 S
24.10.2020 22:00:00 0,3 0,3 41 22 57 31 S
24.10.2020 21:00:00 0,4 0,4 46 25 59 32 SSW
24.10.2020 20:00:00 1,1 1,1 46 25 61 33 SW
24.10.2020 19:00:00 1,1 1,1 42 23 67 36 SSW
24.10.2020 18:00:00 0,2 0,2 46 25 67 36 SW
24.10.2020 17:00:00 1,8 1,8 52 28 63 34 S
24.10.2020 16:00:00 1,9 1,9 54 29 76 41 SSW
24.10.2020 15:00:00 2,3 2,3 59 32 81 44 SSW
24.10.2020 14:00:00 2,4 2,4 68 37 98 53 SSW
24.10.2020 13:00:00 2,5 2,5 57 31 76 41 SSW
24.10.2020 12:00:00 2,1 2,1 46 25 68 37 S
24.10.2020 11:00:00 1,3 1,3 41 22 55 30 SSW
24.10.2020 10:00:00 0,9 0,9 34 18 57 31 SSW
24.10.2020 09:00:00 0,1 0,1 61 33 98 53 WSW
24.10.2020 08:00:00 3,4 3,4 80 43 122 66 SSE
24.10.2020 07:00:00 3,2 3,2 78 42 109 59 SSE

tt = Température de l'air
td = dewpoint
ff = Vitesse du vent
fx = gusts
dd = Direction du vent

stations d'obs. à proximité